sensor_id;sensor_type;location;lat;lon;timestamp;temperature;humidity
80274;DHT22;69576;51.902;-8.462;2023-07-28T00:00:18;20.00;68.60
80274;DHT22;69576;51.902;-8.462;2023-07-28T00:02:46;19.90;68.50
80274;DHT22;69576;51.902;-8.462;2023-07-28T00:05:14;19.90;68.30
80274;DHT22;69576;51.902;-8.462;2023-07-28T00:07:40;19.90;68.70
80274;DHT22;69576;51.902;-8.462;2023-07-28T00:10:06;19.90;68.40
80274;DHT22;69576;51.902;-8.462;2023-07-28T00:12:34;19.90;68.60
80274;DHT22;69576;51.902;-8.462;2023-07-28T00:14:59;19.90;68.30
80274;DHT22;69576;51.902;-8.462;2023-07-28T00:17:27;19.90;68.50
80274;DHT22;69576;51.902;-8.462;2023-07-28T00:19:53;19.90;68.60
80274;DHT22;69576;51.902;-8.462;2023-07-28T00:22:19;19.90;68.30
80274;DHT22;69576;51.902;-8.462;2023-07-28T00:24:45;19.90;68.20
80274;DHT22;69576;51.902;-8.462;2023-07-28T00:27:10;19.90;68.20
80274;DHT22;69576;51.902;-8.462;2023-07-28T00:29:41;19.90;68.00
80274;DHT22;69576;51.902;-8.462;2023-07-28T00:32:09;19.90;68.20
80274;DHT22;69576;51.902;-8.462;2023-07-28T00:34:35;19.90;68.60
80274;DHT22;69576;51.902;-8.462;2023-07-28T00:37:00;19.90;68.40
80274;DHT22;69576;51.902;-8.462;2023-07-28T00:39:26;19.90;68.50
80274;DHT22;69576;51.902;-8.462;2023-07-28T00:41:52;19.90;68.70
80274;DHT22;69576;51.902;-8.462;2023-07-28T00:44:18;19.90;68.20
80274;DHT22;69576;51.902;-8.462;2023-07-28T00:46:44;19.90;68.20
80274;DHT22;69576;51.902;-8.462;2023-07-28T00:49:10;19.90;68.40
80274;DHT22;69576;51.902;-8.462;2023-07-28T00:51:37;19.90;68.10
80274;DHT22;69576;51.902;-8.462;2023-07-28T00:54:04;19.80;68.30
80274;DHT22;69576;51.902;-8.462;2023-07-28T00:56:32;19.80;68.20
80274;DHT22;69576;51.902;-8.462;2023-07-28T00:59:00;19.80;68.10
80274;DHT22;69576;51.902;-8.462;2023-07-28T01:01:28;19.80;68.20
80274;DHT22;69576;51.902;-8.462;2023-07-28T01:03:54;19.80;67.90
80274;DHT22;69576;51.902;-8.462;2023-07-28T01:11:23;19.70;67.80
80274;DHT22;69576;51.902;-8.462;2023-07-28T01:13:49;19.70;68.10
80274;DHT22;69576;51.902;-8.462;2023-07-28T01:16:15;19.70;67.70
80274;DHT22;69576;51.902;-8.462;2023-07-28T01:18:43;19.70;68.40
80274;DHT22;69576;51.902;-8.462;2023-07-28T01:21:21;19.70;68.40
80274;DHT22;69576;51.902;-8.462;2023-07-28T01:26:37;19.70;68.10
80274;DHT22;69576;51.902;-8.462;2023-07-28T01:29:05;19.70;67.70
80274;DHT22;69576;51.902;-8.462;2023-07-28T01:31:31;19.70;67.80
80274;DHT22;69576;51.902;-8.462;2023-07-28T01:33:57;19.70;67.70
80274;DHT22;69576;51.902;-8.462;2023-07-28T01:36:22;19.70;67.70
80274;DHT22;69576;51.902;-8.462;2023-07-28T01:38:51;19.70;67.60
80274;DHT22;69576;51.902;-8.462;2023-07-28T01:41:16;19.70;68.00
80274;DHT22;69576;51.902;-8.462;2023-07-28T01:43:45;19.70;67.60
80274;DHT22;69576;51.902;-8.462;2023-07-28T01:46:10;19.70;67.90
80274;DHT22;69576;51.902;-8.462;2023-07-28T01:48:36;19.70;67.70
80274;DHT22;69576;51.902;-8.462;2023-07-28T01:51:02;19.70;67.50
80274;DHT22;69576;51.902;-8.462;2023-07-28T01:53:28;19.70;67.60
80274;DHT22;69576;51.902;-8.462;2023-07-28T01:55:53;19.70;68.00
80274;DHT22;69576;51.902;-8.462;2023-07-28T01:58:22;19.60;67.80
80274;DHT22;69576;51.902;-8.462;2023-07-28T02:00:50;19.70;67.70
80274;DHT22;69576;51.902;-8.462;2023-07-28T02:03:15;19.60;67.90
80274;DHT22;69576;51.902;-8.462;2023-07-28T02:05:41;19.60;67.50
80274;DHT22;69576;51.902;-8.462;2023-07-28T02:08:07;19.60;67.40
80274;DHT22;69576;51.902;-8.462;2023-07-28T02:10:32;19.50;67.40
80274;DHT22;69576;51.902;-8.462;2023-07-28T02:13:01;19.50;67.60
80274;DHT22;69576;51.902;-8.462;2023-07-28T02:15:26;19.50;67.60
80274;DHT22;69576;51.902;-8.462;2023-07-28T02:17:55;19.50;67.30
80274;DHT22;69576;51.902;-8.462;2023-07-28T02:20:21;19.50;67.30
80274;DHT22;69576;51.902;-8.462;2023-07-28T02:22:49;19.50;67.30
80274;DHT22;69576;51.902;-8.462;2023-07-28T02:25:15;19.50;67.70
80274;DHT22;69576;51.902;-8.462;2023-07-28T02:27:41;19.50;67.30
80274;DHT22;69576;51.902;-8.462;2023-07-28T02:30:09;19.50;67.10
80274;DHT22;69576;51.902;-8.462;2023-07-28T02:32:36;19.50;67.40
80274;DHT22;69576;51.902;-8.462;2023-07-28T02:35:02;19.50;67.60
80274;DHT22;69576;51.902;-8.462;2023-07-28T02:37:28;19.50;67.50
80274;DHT22;69576;51.902;-8.462;2023-07-28T02:39:53;19.50;67.50
80274;DHT22;69576;51.902;-8.462;2023-07-28T02:42:19;19.50;67.60
80274;DHT22;69576;51.902;-8.462;2023-07-28T02:44:45;19.50;67.40
80274;DHT22;69576;51.902;-8.462;2023-07-28T02:47:11;19.50;67.20
80274;DHT22;69576;51.902;-8.462;2023-07-28T02:49:36;19.40;67.40
80274;DHT22;69576;51.902;-8.462;2023-07-28T02:52:02;19.40;67.50
80274;DHT22;69576;51.902;-8.462;2023-07-28T02:54:28;19.40;67.40
80274;DHT22;69576;51.902;-8.462;2023-07-28T02:56:54;19.40;67.50
80274;DHT22;69576;51.902;-8.462;2023-07-28T02:59:22;19.40;67.50
80274;DHT22;69576;51.902;-8.462;2023-07-28T03:01:51;19.40;67.60
80274;DHT22;69576;51.902;-8.462;2023-07-28T03:04:22;19.40;67.40
80274;DHT22;69576;51.902;-8.462;2023-07-28T03:06:50;19.40;67.60
80274;DHT22;69576;51.902;-8.462;2023-07-28T03:09:19;19.40;67.60
80274;DHT22;69576;51.902;-8.462;2023-07-28T03:11:45;19.40;67.60
80274;DHT22;69576;51.902;-8.462;2023-07-28T03:14:11;19.40;67.80
80274;DHT22;69576;51.902;-8.462;2023-07-28T03:16:38;19.30;67.60
80274;DHT22;69576;51.902;-8.462;2023-07-28T03:19:04;19.40;67.60
80274;DHT22;69576;51.902;-8.462;2023-07-28T03:21:30;19.30;67.60
80274;DHT22;69576;51.902;-8.462;2023-07-28T03:23:56;19.30;68.00
80274;DHT22;69576;51.902;-8.462;2023-07-28T03:26:22;19.30;68.10
80274;DHT22;69576;51.902;-8.462;2023-07-28T03:28:48;19.30;68.00
80274;DHT22;69576;51.902;-8.462;2023-07-28T03:31:16;19.30;68.00
80274;DHT22;69576;51.902;-8.462;2023-07-28T03:33:41;19.30;67.90
80274;DHT22;69576;51.902;-8.462;2023-07-28T03:36:07;19.30;67.80
80274;DHT22;69576;51.902;-8.462;2023-07-28T03:38:33;19.30;68.10
80274;DHT22;69576;51.902;-8.462;2023-07-28T03:40:59;19.30;68.00
80274;DHT22;69576;51.902;-8.462;2023-07-28T03:43:25;19.30;67.90
80274;DHT22;69576;51.902;-8.462;2023-07-28T03:45:51;19.30;67.80
80274;DHT22;69576;51.902;-8.462;2023-07-28T03:48:19;19.30;67.80
80274;DHT22;69576;51.902;-8.462;2023-07-28T03:50:45;19.30;67.90
80274;DHT22;69576;51.902;-8.462;2023-07-28T03:53:11;19.30;67.90
80274;DHT22;69576;51.902;-8.462;2023-07-28T03:55:36;19.30;68.00
80274;DHT22;69576;51.902;-8.462;2023-07-28T03:58:02;19.30;68.10
80274;DHT22;69576;51.902;-8.462;2023-07-28T04:00:29;19.30;68.20
80274;DHT22;69576;51.902;-8.462;2023-07-28T04:02:54;19.30;68.30
80274;DHT22;69576;51.902;-8.462;2023-07-28T04:05:23;19.30;68.20
80274;DHT22;69576;51.902;-8.462;2023-07-28T04:07:51;19.30;68.10
80274;DHT22;69576;51.902;-8.462;2023-07-28T04:10:16;19.30;68.30
80274;DHT22;69576;51.902;-8.462;2023-07-28T04:12:42;19.30;68.00
80274;DHT22;69576;51.902;-8.462;2023-07-28T04:15:08;19.30;68.20
80274;DHT22;69576;51.902;-8.462;2023-07-28T04:17:36;19.30;68.00
80274;DHT22;69576;51.902;-8.462;2023-07-28T04:20:02;19.30;67.90
80274;DHT22;69576;51.902;-8.462;2023-07-28T04:22:28;19.30;68.00
80274;DHT22;69576;51.902;-8.462;2023-07-28T04:24:53;19.30;68.00
80274;DHT22;69576;51.902;-8.462;2023-07-28T04:27:19;19.30;68.50
80274;DHT22;69576;51.902;-8.462;2023-07-28T04:29:48;19.30;68.20
80274;DHT22;69576;51.902;-8.462;2023-07-28T04:32:16;19.30;68.20
80274;DHT22;69576;51.902;-8.462;2023-07-28T04:34:42;19.30;68.50
80274;DHT22;69576;51.902;-8.462;2023-07-28T04:37:07;19.30;68.20
80274;DHT22;69576;51.902;-8.462;2023-07-28T04:39:35;19.30;68.00
80274;DHT22;69576;51.902;-8.462;2023-07-28T04:42:01;19.30;68.10
80274;DHT22;69576;51.902;-8.462;2023-07-28T04:44:27;19.30;68.10
80274;DHT22;69576;51.902;-8.462;2023-07-28T04:46:53;19.20;68.00
80274;DHT22;69576;51.902;-8.462;2023-07-28T04:49:18;19.20;68.30
80274;DHT22;69576;51.902;-8.462;2023-07-28T04:51:46;19.30;68.50
80274;DHT22;69576;51.902;-8.462;2023-07-28T04:54:11;19.30;68.50
80274;DHT22;69576;51.902;-8.462;2023-07-28T04:56:37;19.30;68.40
80274;DHT22;69576;51.902;-8.462;2023-07-28T04:59:03;19.30;68.20
80274;DHT22;69576;51.902;-8.462;2023-07-28T05:01:29;19.20;68.50
80274;DHT22;69576;51.902;-8.462;2023-07-28T05:03:58;19.20;68.50
80274;DHT22;69576;51.902;-8.462;2023-07-28T05:06:25;19.20;68.40
80274;DHT22;69576;51.902;-8.462;2023-07-28T05:08:53;19.20;68.20
80274;DHT22;69576;51.902;-8.462;2023-07-28T05:11:21;19.20;68.30
80274;DHT22;69576;51.902;-8.462;2023-07-28T05:13:50;19.20;68.30
80274;DHT22;69576;51.902;-8.462;2023-07-28T05:16:16;19.20;68.20
80274;DHT22;69576;51.902;-8.462;2023-07-28T05:18:41;19.20;68.30
80274;DHT22;69576;51.902;-8.462;2023-07-28T05:21:08;19.20;68.30
80274;DHT22;69576;51.902;-8.462;2023-07-28T05:23:36;19.20;68.40
80274;DHT22;69576;51.902;-8.462;2023-07-28T05:26:02;19.20;68.30
80274;DHT22;69576;51.902;-8.462;2023-07-28T05:28:34;19.20;68.40
80274;DHT22;69576;51.902;-8.462;2023-07-28T05:31:05;19.20;68.30
80274;DHT22;69576;51.902;-8.462;2023-07-28T05:33:31;19.20;68.30
80274;DHT22;69576;51.902;-8.462;2023-07-28T05:36:03;19.20;68.30
80274;DHT22;69576;51.902;-8.462;2023-07-28T05:38:29;19.20;68.20
80274;DHT22;69576;51.902;-8.462;2023-07-28T05:40:58;19.20;68.20
80274;DHT22;69576;51.902;-8.462;2023-07-28T05:43:29;19.20;68.10
80274;DHT22;69576;51.902;-8.462;2023-07-28T05:45:56;19.20;68.00
80274;DHT22;69576;51.902;-8.462;2023-07-28T05:48:26;19.20;68.20
80274;DHT22;69576;51.902;-8.462;2023-07-28T05:50:54;19.20;68.20
80274;DHT22;69576;51.902;-8.462;2023-07-28T05:53:20;19.30;68.10
80274;DHT22;69576;51.902;-8.462;2023-07-28T05:55:49;19.30;67.80
80274;DHT22;69576;51.902;-8.462;2023-07-28T05:58:17;19.20;67.90
80274;DHT22;69576;51.902;-8.462;2023-07-28T06:00:43;19.30;68.10
80274;DHT22;69576;51.902;-8.462;2023-07-28T06:03:12;19.30;68.10
80274;DHT22;69576;51.902;-8.462;2023-07-28T06:05:41;19.30;68.00
80274;DHT22;69576;51.902;-8.462;2023-07-28T06:08:08;19.30;68.30
80274;DHT22;69576;51.902;-8.462;2023-07-28T06:10:34;19.30;67.80
80274;DHT22;69576;51.902;-8.462;2023-07-28T06:13:00;19.30;68.20
80274;DHT22;69576;51.902;-8.462;2023-07-28T06:15:26;19.30;67.90
80274;DHT22;69576;51.902;-8.462;2023-07-28T06:17:52;19.30;67.70
80274;DHT22;69576;51.902;-8.462;2023-07-28T06:20:18;19.30;67.70
80274;DHT22;69576;51.902;-8.462;2023-07-28T06:22:43;19.30;67.60
80274;DHT22;69576;51.902;-8.462;2023-07-28T06:25:09;19.30;67.60
80274;DHT22;69576;51.902;-8.462;2023-07-28T06:27:36;19.30;67.60
80274;DHT22;69576;51.902;-8.462;2023-07-28T06:30:02;19.30;67.80
80274;DHT22;69576;51.902;-8.462;2023-07-28T06:32:28;19.30;67.70
80274;DHT22;69576;51.902;-8.462;2023-07-28T06:34:54;19.40;67.60
80274;DHT22;69576;51.902;-8.462;2023-07-28T06:37:23;19.40;67.90
80274;DHT22;69576;51.902;-8.462;2023-07-28T06:39:49;19.40;67.90
80274;DHT22;69576;51.902;-8.462;2023-07-28T06:42:17;19.40;67.70
80274;DHT22;69576;51.902;-8.462;2023-07-28T06:44:51;19.50;67.70
80274;DHT22;69576;51.902;-8.462;2023-07-28T06:47:18;19.50;67.70
80274;DHT22;69576;51.902;-8.462;2023-07-28T06:49:44;19.50;67.40
80274;DHT22;69576;51.902;-8.462;2023-07-28T06:52:09;19.60;67.50
80274;DHT22;69576;51.902;-8.462;2023-07-28T06:54:37;19.70;67.40
80274;DHT22;69576;51.902;-8.462;2023-07-28T06:57:04;19.70;67.20
80274;DHT22;69576;51.902;-8.462;2023-07-28T06:59:30;19.70;67.40
80274;DHT22;69576;51.902;-8.462;2023-07-28T07:01:56;19.70;67.10
80274;DHT22;69576;51.902;-8.462;2023-07-28T07:04:21;19.70;66.60
80274;DHT22;69576;51.902;-8.462;2023-07-28T07:06:49;19.70;65.80
80274;DHT22;69576;51.902;-8.462;2023-07-28T07:09:17;19.70;65.80
80274;DHT22;69576;51.902;-8.462;2023-07-28T07:11:43;19.70;65.80
80274;DHT22;69576;51.902;-8.462;2023-07-28T07:14:09;19.70;65.40
80274;DHT22;69576;51.902;-8.462;2023-07-28T07:16:34;19.70;65.20
80274;DHT22;69576;51.902;-8.462;2023-07-28T07:19:02;19.70;65.20
80274;DHT22;69576;51.902;-8.462;2023-07-28T07:21:29;19.60;65.10
80274;DHT22;69576;51.902;-8.462;2023-07-28T07:23:57;19.60;65.10
80274;DHT22;69576;51.902;-8.462;2023-07-28T07:26:22;19.60;64.90
80274;DHT22;69576;51.902;-8.462;2023-07-28T07:28:48;19.60;64.70
80274;DHT22;69576;51.902;-8.462;2023-07-28T07:31:14;19.60;64.90
80274;DHT22;69576;51.902;-8.462;2023-07-28T07:33:41;19.50;64.70
80274;DHT22;69576;51.902;-8.462;2023-07-28T07:36:14;19.50;64.80
80274;DHT22;69576;51.902;-8.462;2023-07-28T07:38:41;19.60;64.90
80274;DHT22;69576;51.902;-8.462;2023-07-28T07:41:09;19.60;64.90
80274;DHT22;69576;51.902;-8.462;2023-07-28T07:43:39;19.70;64.70
80274;DHT22;69576;51.902;-8.462;2023-07-28T07:46:07;19.70;64.60
80274;DHT22;69576;51.902;-8.462;2023-07-28T07:48:33;19.70;64.70
80274;DHT22;69576;51.902;-8.462;2023-07-28T07:51:00;19.70;64.80
80274;DHT22;69576;51.902;-8.462;2023-07-28T07:53:27;19.70;64.60
80274;DHT22;69576;51.902;-8.462;2023-07-28T07:55:53;19.70;64.60
80274;DHT22;69576;51.902;-8.462;2023-07-28T07:58:21;19.70;64.40
80274;DHT22;69576;51.902;-8.462;2023-07-28T08:00:47;19.70;64.20
80274;DHT22;69576;51.902;-8.462;2023-07-28T08:03:15;19.70;64.30
80274;DHT22;69576;51.902;-8.462;2023-07-28T08:05:41;19.70;64.60
80274;DHT22;69576;51.902;-8.462;2023-07-28T08:08:07;19.70;64.40
80274;DHT22;69576;51.902;-8.462;2023-07-28T08:10:34;19.70;64.40
80274;DHT22;69576;51.902;-8.462;2023-07-28T08:13:02;19.70;64.30
80274;DHT22;69576;51.902;-8.462;2023-07-28T08:15:29;19.70;64.50
80274;DHT22;69576;51.902;-8.462;2023-07-28T08:17:57;19.70;64.30
80274;DHT22;69576;51.902;-8.462;2023-07-28T08:20:25;19.70;64.20
80274;DHT22;69576;51.902;-8.462;2023-07-28T08:22:51;19.70;64.30
80274;DHT22;69576;51.902;-8.462;2023-07-28T08:25:17;19.70;64.50
80274;DHT22;69576;51.902;-8.462;2023-07-28T08:27:42;19.70;64.50
80274;DHT22;69576;51.902;-8.462;2023-07-28T08:30:12;19.70;64.60
80274;DHT22;69576;51.902;-8.462;2023-07-28T08:32:38;19.70;64.60
80274;DHT22;69576;51.902;-8.462;2023-07-28T08:35:04;19.70;64.70
80274;DHT22;69576;51.902;-8.462;2023-07-28T08:37:30;19.70;64.70
80274;DHT22;69576;51.902;-8.462;2023-07-28T08:39:56;19.70;64.60
80274;DHT22;69576;51.902;-8.462;2023-07-28T08:42:22;19.70;64.60
80274;DHT22;69576;51.902;-8.462;2023-07-28T08:44:48;19.70;64.60
80274;DHT22;69576;51.902;-8.462;2023-07-28T08:47:17;19.70;64.80
80274;DHT22;69576;51.902;-8.462;2023-07-28T08:49:43;19.70;65.30
80274;DHT22;69576;51.902;-8.462;2023-07-28T08:52:15;19.70;65.60
80274;DHT22;69576;51.902;-8.462;2023-07-28T08:54:46;19.60;66.10
80274;DHT22;69576;51.902;-8.462;2023-07-28T08:57:12;19.60;66.30
80274;DHT22;69576;51.902;-8.462;2023-07-28T08:59:40;19.60;66.20
80274;DHT22;69576;51.902;-8.462;2023-07-28T09:02:14;19.50;66.20
80274;DHT22;69576;51.902;-8.462;2023-07-28T09:04:42;19.50;66.20
80274;DHT22;69576;51.902;-8.462;2023-07-28T09:07:10;19.50;66.20
80274;DHT22;69576;51.902;-8.462;2023-07-28T09:09:39;19.50;66.20
80274;DHT22;69576;51.902;-8.462;2023-07-28T09:12:08;19.50;66.20
80274;DHT22;69576;51.902;-8.462;2023-07-28T09:14:37;19.60;66.30
80274;DHT22;69576;51.902;-8.462;2023-07-28T09:17:11;19.70;66.40
80274;DHT22;69576;51.902;-8.462;2023-07-28T09:19:57;19.70;66.40
80274;DHT22;69576;51.902;-8.462;2023-07-28T09:22:23;19.90;66.30
80274;DHT22;69576;51.902;-8.462;2023-07-28T09:24:51;20.00;66.30
80274;DHT22;69576;51.902;-8.462;2023-07-28T09:27:24;20.20;66.10
80274;DHT22;69576;51.902;-8.462;2023-07-28T09:29:52;20.40;65.90
80274;DHT22;69576;51.902;-8.462;2023-07-28T09:32:31;20.70;65.50
80274;DHT22;69576;51.902;-8.462;2023-07-28T09:37:34;21.80;65.20
80274;DHT22;69576;51.902;-8.462;2023-07-28T09:40:01;22.50;64.40
80274;DHT22;69576;51.902;-8.462;2023-07-28T09:42:32;23.00;63.00
80274;DHT22;69576;51.902;-8.462;2023-07-28T09:44:59;23.40;61.80
80274;DHT22;69576;51.902;-8.462;2023-07-28T09:47:25;23.60;61.20
80274;DHT22;69576;51.902;-8.462;2023-07-28T09:49:55;23.90;60.40
80274;DHT22;69576;51.902;-8.462;2023-07-28T09:52:25;24.20;59.50
80274;DHT22;69576;51.902;-8.462;2023-07-28T09:54:56;24.00;58.90
80274;DHT22;69576;51.902;-8.462;2023-07-28T09:57:23;23.90;58.30
80274;DHT22;69576;51.902;-8.462;2023-07-28T09:59:52;23.90;58.40
80274;DHT22;69576;51.902;-8.462;2023-07-28T10:02:22;23.80;58.20
80274;DHT22;69576;51.902;-8.462;2023-07-28T10:04:48;23.50;58.00
80274;DHT22;69576;51.902;-8.462;2023-07-28T10:07:14;23.40;58.20
80274;DHT22;69576;51.902;-8.462;2023-07-28T10:09:42;23.30;58.70
80274;DHT22;69576;51.902;-8.462;2023-07-28T10:12:21;23.00;58.40
80274;DHT22;69576;51.902;-8.462;2023-07-28T10:15:02;22.70;58.30
80274;DHT22;69576;51.902;-8.462;2023-07-28T10:17:38;22.50;58.40
80274;DHT22;69576;51.902;-8.462;2023-07-28T10:20:09;22.20;58.90
80274;DHT22;69576;51.902;-8.462;2023-07-28T10:23:05;21.90;59.10
80274;DHT22;69576;51.902;-8.462;2023-07-28T10:25:36;21.70;59.30
80274;DHT22;69576;51.902;-8.462;2023-07-28T10:28:02;21.50;59.80
80274;DHT22;69576;51.902;-8.462;2023-07-28T10:30:28;21.50;60.10
80274;DHT22;69576;51.902;-8.462;2023-07-28T10:32:55;21.50;60.10
80274;DHT22;69576;51.902;-8.462;2023-07-28T10:35:25;21.50;59.90
80274;DHT22;69576;51.902;-8.462;2023-07-28T10:37:53;21.70;60.30
80274;DHT22;69576;51.902;-8.462;2023-07-28T10:40:33;21.90;60.10
80274;DHT22;69576;51.902;-8.462;2023-07-28T10:43:07;22.10;59.20
80274;DHT22;69576;51.902;-8.462;2023-07-28T10:45:32;22.20;59.10
80274;DHT22;69576;51.902;-8.462;2023-07-28T10:47:59;22.30;58.90
80274;DHT22;69576;51.902;-8.462;2023-07-28T10:50:30;22.30;59.30
80274;DHT22;69576;51.902;-8.462;2023-07-28T10:52:56;22.40;59.20
80274;DHT22;69576;51.902;-8.462;2023-07-28T10:55:24;22.50;58.90
80274;DHT22;69576;51.902;-8.462;2023-07-28T10:57:52;22.60;59.10
80274;DHT22;69576;51.902;-8.462;2023-07-28T11:00:22;22.70;59.20
80274;DHT22;69576;51.902;-8.462;2023-07-28T11:02:53;22.80;58.60
80274;DHT22;69576;51.902;-8.462;2023-07-28T11:05:20;22.80;58.50
80274;DHT22;69576;51.902;-8.462;2023-07-28T11:07:49;22.60;58.20
80274;DHT22;69576;51.902;-8.462;2023-07-28T11:10:15;22.40;58.10
80274;DHT22;69576;51.902;-8.462;2023-07-28T11:12:44;22.20;58.00
80274;DHT22;69576;51.902;-8.462;2023-07-28T11:15:16;22.20;58.40
80274;DHT22;69576;51.902;-8.462;2023-07-28T11:17:51;22.20;58.40
80274;DHT22;69576;51.902;-8.462;2023-07-28T11:20:19;22.10;58.00
80274;DHT22;69576;51.902;-8.462;2023-07-28T11:22:46;22.00;58.10
80274;DHT22;69576;51.902;-8.462;2023-07-28T11:25:12;21.90;58.50
80274;DHT22;69576;51.902;-8.462;2023-07-28T11:27:44;22.00;58.60
80274;DHT22;69576;51.902;-8.462;2023-07-28T11:30:16;22.00;58.80
80274;DHT22;69576;51.902;-8.462;2023-07-28T11:32:44;22.10;58.50
80274;DHT22;69576;51.902;-8.462;2023-07-28T11:35:16;22.00;58.50
80274;DHT22;69576;51.902;-8.462;2023-07-28T11:37:44;22.00;57.80
80274;DHT22;69576;51.902;-8.462;2023-07-28T11:40:11;21.90;58.00
80274;DHT22;69576;51.902;-8.462;2023-07-28T11:42:38;21.80;57.90
80274;DHT22;69576;51.902;-8.462;2023-07-28T11:45:06;21.70;58.40
80274;DHT22;69576;51.902;-8.462;2023-07-28T11:47:32;21.70;58.20
80274;DHT22;69576;51.902;-8.462;2023-07-28T11:49:58;21.50;58.30
80274;DHT22;69576;51.902;-8.462;2023-07-28T11:52:36;21.50;58.70
80274;DHT22;69576;51.902;-8.462;2023-07-28T11:55:05;21.50;58.20
80274;DHT22;69576;51.902;-8.462;2023-07-28T11:57:31;21.50;58.40
80274;DHT22;69576;51.902;-8.462;2023-07-28T11:59:58;21.40;58.30
80274;DHT22;69576;51.902;-8.462;2023-07-28T12:02:28;21.30;58.10
80274;DHT22;69576;51.902;-8.462;2023-07-28T12:04:57;21.30;58.40
80274;DHT22;69576;51.902;-8.462;2023-07-28T12:07:36;21.30;58.70
80274;DHT22;69576;51.902;-8.462;2023-07-28T12:10:08;21.30;59.10
80274;DHT22;69576;51.902;-8.462;2023-07-28T12:12:43;21.30;59.20
80274;DHT22;69576;51.902;-8.462;2023-07-28T12:15:28;21.40;59.30
80274;DHT22;69576;51.902;-8.462;2023-07-28T12:20:53;21.30;59.70
80274;DHT22;69576;51.902;-8.462;2023-07-28T12:23:20;21.30;59.80
80274;DHT22;69576;51.902;-8.462;2023-07-28T12:25:47;21.30;60.00
80274;DHT22;69576;51.902;-8.462;2023-07-28T12:28:15;21.30;60.10
80274;DHT22;69576;51.902;-8.462;2023-07-28T12:30:43;21.40;60.30
80274;DHT22;69576;51.902;-8.462;2023-07-28T12:33:09;21.40;60.30
80274;DHT22;69576;51.902;-8.462;2023-07-28T12:35:37;21.50;60.40
80274;DHT22;69576;51.902;-8.462;2023-07-28T12:38:06;21.50;60.50
80274;DHT22;69576;51.902;-8.462;2023-07-28T12:40:33;21.50;60.50
80274;DHT22;69576;51.902;-8.462;2023-07-28T12:43:01;21.50;60.50
80274;DHT22;69576;51.902;-8.462;2023-07-28T12:45:28;21.50;60.40
80274;DHT22;69576;51.902;-8.462;2023-07-28T12:47:54;21.50;60.50
80274;DHT22;69576;51.902;-8.462;2023-07-28T12:50:23;21.50;60.60
80274;DHT22;69576;51.902;-8.462;2023-07-28T12:52:50;21.50;60.60
80274;DHT22;69576;51.902;-8.462;2023-07-28T12:55:19;21.50;60.50
80274;DHT22;69576;51.902;-8.462;2023-07-28T12:57:45;21.50;60.70
80274;DHT22;69576;51.902;-8.462;2023-07-28T13:00:14;21.50;60.70
80274;DHT22;69576;51.902;-8.462;2023-07-28T13:02:45;21.50;60.70
80274;DHT22;69576;51.902;-8.462;2023-07-28T13:05:12;21.50;60.80
80274;DHT22;69576;51.902;-8.462;2023-07-28T13:07:40;21.50;60.90
80274;DHT22;69576;51.902;-8.462;2023-07-28T13:10:08;21.50;60.90
80274;DHT22;69576;51.902;-8.462;2023-07-28T13:12:37;21.50;61.00
80274;DHT22;69576;51.902;-8.462;2023-07-28T13:15:05;21.50;60.90
80274;DHT22;69576;51.902;-8.462;2023-07-28T13:17:31;21.50;61.00
80274;DHT22;69576;51.902;-8.462;2023-07-28T13:19:57;21.50;60.90
80274;DHT22;69576;51.902;-8.462;2023-07-28T13:22:23;21.50;61.00
80274;DHT22;69576;51.902;-8.462;2023-07-28T13:24:49;21.50;60.80
80274;DHT22;69576;51.902;-8.462;2023-07-28T13:27:15;21.50;60.80
80274;DHT22;69576;51.902;-8.462;2023-07-28T13:29:40;21.40;61.00
80274;DHT22;69576;51.902;-8.462;2023-07-28T13:32:16;21.40;61.10
80274;DHT22;69576;51.902;-8.462;2023-07-28T13:34:45;21.40;61.10
80274;DHT22;69576;51.902;-8.462;2023-07-28T13:37:13;21.40;61.00
80274;DHT22;69576;51.902;-8.462;2023-07-28T13:39:42;21.30;61.20
80274;DHT22;69576;51.902;-8.462;2023-07-28T13:42:09;21.30;61.30
80274;DHT22;69576;51.902;-8.462;2023-07-28T13:44:34;21.30;61.10
80274;DHT22;69576;51.902;-8.462;2023-07-28T13:47:02;21.30;61.40
80274;DHT22;69576;51.902;-8.462;2023-07-28T13:49:33;21.30;61.20
80274;DHT22;69576;51.902;-8.462;2023-07-28T13:52:02;21.20;61.10
80274;DHT22;69576;51.902;-8.462;2023-07-28T13:54:31;21.20;61.30
80274;DHT22;69576;51.902;-8.462;2023-07-28T13:56:57;21.20;61.50
80274;DHT22;69576;51.902;-8.462;2023-07-28T13:59:27;21.10;61.60
80274;DHT22;69576;51.902;-8.462;2023-07-28T14:01:53;21.10;61.30
80274;DHT22;69576;51.902;-8.462;2023-07-28T14:04:18;21.10;61.70
80274;DHT22;69576;51.902;-8.462;2023-07-28T14:06:44;21.10;61.90
80274;DHT22;69576;51.902;-8.462;2023-07-28T14:09:10;21.10;62.00
80274;DHT22;69576;51.902;-8.462;2023-07-28T14:11:36;21.10;61.90
80274;DHT22;69576;51.902;-8.462;2023-07-28T14:14:07;21.10;62.00
80274;DHT22;69576;51.902;-8.462;2023-07-28T14:16:33;21.20;62.00
80274;DHT22;69576;51.902;-8.462;2023-07-28T14:19:01;21.20;61.90
80274;DHT22;69576;51.902;-8.462;2023-07-28T14:21:28;21.20;61.90
80274;DHT22;69576;51.902;-8.462;2023-07-28T14:23:57;21.20;62.00
80274;DHT22;69576;51.902;-8.462;2023-07-28T14:26:23;21.20;62.00
80274;DHT22;69576;51.902;-8.462;2023-07-28T14:28:49;21.20;62.00
80274;DHT22;69576;51.902;-8.462;2023-07-28T14:31:14;21.20;62.00
80274;DHT22;69576;51.902;-8.462;2023-07-28T14:33:43;21.20;62.00
80274;DHT22;69576;51.902;-8.462;2023-07-28T14:36:08;21.20;61.90
80274;DHT22;69576;51.902;-8.462;2023-07-28T14:38:36;21.20;61.60
80274;DHT22;69576;51.902;-8.462;2023-07-28T14:41:02;21.30;61.80
80274;DHT22;69576;51.902;-8.462;2023-07-28T14:43:28;21.20;61.90
80274;DHT22;69576;51.902;-8.462;2023-07-28T14:45:56;21.20;61.90
80274;DHT22;69576;51.902;-8.462;2023-07-28T14:48:22;21.20;61.70
80274;DHT22;69576;51.902;-8.462;2023-07-28T14:50:48;21.20;62.00
80274;DHT22;69576;51.902;-8.462;2023-07-28T14:55:59;21.20;62.00
80274;DHT22;69576;51.902;-8.462;2023-07-28T14:58:25;21.20;62.00
80274;DHT22;69576;51.902;-8.462;2023-07-28T15:00:51;21.10;62.00
80274;DHT22;69576;51.902;-8.462;2023-07-28T15:03:19;21.10;62.00
80274;DHT22;69576;51.902;-8.462;2023-07-28T15:05:50;21.10;62.00
80274;DHT22;69576;51.902;-8.462;2023-07-28T15:08:16;21.10;61.90
80274;DHT22;69576;51.902;-8.462;2023-07-28T15:10:42;21.10;62.00
80274;DHT22;69576;51.902;-8.462;2023-07-28T15:13:08;21.10;62.20
80274;DHT22;69576;51.902;-8.462;2023-07-28T15:15:33;21.00;62.30
80274;DHT22;69576;51.902;-8.462;2023-07-28T15:17:59;21.00;62.50
80274;DHT22;69576;51.902;-8.462;2023-07-28T15:20:25;21.00;62.50
80274;DHT22;69576;51.902;-8.462;2023-07-28T15:22:51;21.00;62.30
80274;DHT22;69576;51.902;-8.462;2023-07-28T15:25:16;21.00;62.60
80274;DHT22;69576;51.902;-8.462;2023-07-28T15:27:45;21.00;62.60
80274;DHT22;69576;51.902;-8.462;2023-07-28T15:30:11;21.00;62.40
80274;DHT22;69576;51.902;-8.462;2023-07-28T15:32:38;20.90;62.70